Time;durP1;ratioP1;P1;durP2;ratioP2;P2;SDS_P1;SDS_P2;PMS_P1;PMS_P2;Temp;Humidity;BMP_temperature;BMP_pressure;BME280_temperature;BME280_humidity;BME280_pressure;Samples;Min_cycle;Max_cycle;Signal;HPM_P1;HPM_P2
2022/05/08 00:00:38;;;;;;;6.97;5.32;;;;;;;11.92;nan;101641.72;4933327;29;20109;-79
2022/05/08 00:03:05;;;;;;;5.45;4.95;;;;;;;11.92;nan;101639.06;4920576;29;20306;-79
2022/05/08 00:05:32;;;;;;;4.90;4.40;;;;;;;11.93;nan;101648.75;4909493;29;20062;-79
2022/05/08 00:08:06;;;;;;;5.88;4.35;;;;;;;11.96;nan;101642.59;4914833;29;20050;-80
2022/05/08 00:10:36;;;;;;;5.57;4.72;;;;;;;11.95;nan;101644.34;4925198;29;20109;-80
2022/05/08 00:13:02;;;;;;;5.47;4.03;;;;;;;11.93;nan;101638.19;4911640;29;20036;-80
2022/05/08 00:15:30;;;;;;;4.38;3.92;;;;;;;11.90;nan;101634.69;4914718;29;20052;-80
2022/05/08 00:18:00;;;;;;;5.82;3.97;;;;;;;11.97;nan;101639.03;4893120;29;20086;-81
2022/05/08 00:20:28;;;;;;;4.72;4.05;;;;;;;11.83;nan;101634.75;4902966;29;20059;-82
2022/05/08 00:23:06;;;;;;;5.93;3.88;;;;;;;11.78;nan;101638.31;4899159;29;20035;-81
2022/05/08 00:25:33;;;;;;;6.05;4.38;;;;;;;11.77;nan;101626.84;4913597;29;20133;-81
2022/05/08 00:28:03;;;;;;;6.28;4.97;;;;;;;11.88;nan;101632.06;4908589;29;20040;-81
2022/05/08 00:30:30;;;;;;;5.63;4.78;;;;;;;11.76;nan;101627.72;4906363;29;20405;-80
2022/05/08 00:32:58;;;;;;;6.13;4.63;;;;;;;11.63;nan;101623.47;4909330;29;20044;-82
2022/05/08 00:35:30;;;;;;;4.45;4.00;;;;;;;11.52;nan;101620.91;4910579;28;20028;-81
2022/05/08 00:38:00;;;;;;;5.28;4.70;;;;;;;11.48;nan;101620.94;4911902;29;20640;-81
2022/05/08 00:40:35;;;;;;;5.53;4.78;;;;;;;11.56;nan;101619.09;4894166;29;20044;-81
2022/05/08 00:43:28;;;;;;;6.28;4.53;;;;;;;11.50;nan;101619.16;4894859;29;20637;-80
2022/05/08 00:46:02;;;;;;;5.18;4.50;;;;;;;11.46;nan;101625.38;4919256;29;20405;-81
2022/05/08 00:48:29;;;;;;;;;;;;;;;11.40;nan;101621.00;4892799;29;20067;-81
2022/05/08 00:50:57;;;;;;;5.68;4.55;;;;;;;11.36;nan;101615.78;4898951;29;19938;-81
2022/05/08 00:53:33;;;;;;;6.65;4.75;;;;;;;11.35;nan;101617.53;4907187;29;20044;-82
2022/05/08 00:56:05;;;;;;;7.22;5.68;;;;;;;11.36;nan;101615.78;4908554;29;20041;-81
2022/05/08 00:58:36;;;;;;;6.75;4.70;;;;;;;11.30;nan;101618.47;4907927;29;20048;-81
2022/05/08 01:01:03;;;;;;;6.28;5.07;;;;;;;11.32;nan;101622.84;4901166;29;20052;-81
2022/05/08 01:03:31;;;;;;;5.68;5.05;;;;;;;11.33;nan;101629.00;4913318;29;20095;-81
2022/05/08 01:06:04;;;;;;;6.35;4.82;;;;;;;11.27;nan;101616.72;4915233;29;20051;-81
2022/05/08 01:08:33;;;;;;;6.40;5.28;;;;;;;11.27;nan;101622.91;4894183;29;20042;-83
2022/05/08 01:11:02;;;;;;;7.68;5.20;;;;;;;11.18;nan;101622.97;4909924;29;20043;-82
2022/05/08 01:13:29;;;;;;;6.10;5.22;;;;;;;11.17;nan;101615.00;4913731;29;20150;-83
2022/05/08 01:15:56;;;;;;;6.03;4.70;;;;;;;11.14;nan;101623.00;4902839;29;20048;-84
2022/05/08 01:18:24;;;;;;;6.80;5.15;;;;;;;11.16;nan;101626.50;4905839;29;20726;-81
2022/05/08 01:20:54;;;;;;;5.95;5.03;;;;;;;11.11;nan;101628.31;4914820;29;20415;-83
2022/05/08 01:23:21;;;;;;;5.90;5.15;;;;;;;11.11;nan;101629.19;4904418;29;20040;-83
2022/05/08 01:25:53;;;;;;;7.35;4.88;;;;;;;11.06;nan;101628.31;4908310;29;20044;-82
2022/05/08 01:28:22;;;;;;;6.63;5.45;;;;;;;11.04;nan;101621.31;4902401;29;20425;-85
2022/05/08 01:30:52;;;;;;;6.32;4.93;;;;;;;11.04;nan;101626.59;4910521;29;20036;-83
2022/05/08 01:33:23;;;;;;;6.22;5.38;;;;;;;11.03;nan;101625.72;4911492;29;20043;-83
2022/05/08 01:35:51;;;;;;;5.78;4.70;;;;;;;10.98;nan;101636.31;4896919;29;20502;-83
2022/05/08 01:38:20;;;;;;;8.15;4.93;;;;;;;10.93;nan;101629.28;4911942;29;20559;-82
2022/05/08 01:40:55;;;;;;;6.82;4.80;;;;;;;10.80;nan;101623.22;4905572;29;20510;-84
2022/05/08 01:43:21;;;;;;;7.38;5.70;;;;;;;10.77;nan;101619.72;4911936;29;20036;-83
2022/05/08 01:45:48;;;;;;;5.90;5.30;;;;;;;10.74;nan;101617.94;4920948;29;20164;-83
2022/05/08 01:48:28;;;;;;;5.82;4.82;;;;;;;10.76;nan;101617.94;4914314;29;20109;-82
2022/05/08 01:50:56;;;;;;;6.45;5.35;;;;;;;10.73;nan;101621.50;4917075;29;20040;-82
2022/05/08 01:53:28;;;;;;;7.80;4.50;;;;;;;10.61;nan;101625.09;4902933;29;20042;-82
2022/05/08 01:55:57;;;;;;;5.68;4.97;;;;;;;10.54;nan;101626.00;4897615;29;20046;-83
2022/05/08 01:58:26;;;;;;;7.32;4.80;;;;;;;10.53;nan;101626.88;4897733;29;20035;-83
2022/05/08 02:00:58;;;;;;;6.30;4.82;;;;;;;10.60;nan;101638.31;4921628;29;20421;-83
2022/05/08 02:03:25;;;;;;;5.70;4.57;;;;;;;10.49;nan;101624.25;4917183;29;20517;-84
2022/05/08 02:05:52;;;;;;;7.18;5.28;;;;;;;10.61;nan;101633.03;4881340;29;20048;-80
2022/05/08 02:08:19;;;;;;;6.07;4.57;;;;;;;10.48;nan;101635.72;4919320;29;20039;-83
2022/05/08 02:10:46;;;;;;;5.70;4.60;;;;;;;10.43;nan;101633.09;4913917;29;20052;-81
2022/05/08 02:13:13;;;;;;;7.18;4.80;;;;;;;10.47;nan;101633.97;4921538;29;20039;-82
2022/05/08 02:15:40;;;;;;;6.63;4.93;;;;;;;10.53;nan;101639.22;4918209;29;20042;-81
2022/05/08 02:18:08;;;;;;;6.25;5.03;;;;;;;10.60;nan;101647.13;4919411;29;20040;-83
2022/05/08 02:20:43;;;;;;;7.05;4.85;;;;;;;10.48;nan;101641.00;4914031;29;20124;-84
2022/05/08 02:23:10;;;;;;;11.38;5.57;;;;;;;10.49;nan;101646.28;4890780;29;20449;-81
2022/05/08 02:25:38;;;;;;;6.88;5.35;;;;;;;10.43;nan;101648.97;4906507;29;20040;-82
2022/05/08 02:28:05;;;;;;;6.97;5.10;;;;;;;10.39;nan;101648.06;4907963;29;20040;-81
2022/05/08 02:30:32;;;;;;;9.73;4.80;;;;;;;10.30;nan;101644.59;4902133;29;20405;-81
2022/05/08 02:33:00;;;;;;;6.20;4.20;;;;;;;10.25;nan;101646.34;4909941;29;20048;-82
2022/05/08 02:35:27;;;;;;;6.95;4.88;;;;;;;10.28;nan;101649.88;4889593;29;20498;-81
2022/05/08 02:37:55;;;;;;;7.22;4.30;;;;;;;10.26;nan;101641.09;4908652;29;20401;-81
2022/05/08 02:40:25;;;;;;;7.13;4.80;;;;;;;10.29;nan;101650.75;4913582;29;20490;-82
2022/05/08 02:42:53;;;;;;;8.40;4.65;;;;;;;10.28;nan;101641.09;4914939;29;20032;-81
2022/05/08 02:45:20;;;;;;;7.47;4.60;;;;;;;10.12;nan;101656.94;4922669;29;20050;-81
2022/05/08 02:47:47;;;;;;;10.23;4.68;;;;;;;10.00;nan;101649.03;4908328;29;20036;-81
2022/05/08 02:50:14;;;;;;;9.05;4.35;;;;;;;9.98;nan;101657.84;4916804;29;20039;-82
2022/05/08 02:52:42;;;;;;;5.50;3.92;;;;;;;9.92;nan;101661.41;4911434;29;20040;-80
2022/05/08 03:00:43;;;;;;;6.72;4.38;;;;;;;9.78;nan;101664.03;4986078;28;20038;-78
2022/05/08 03:03:10;;;;;;;6.13;4.25;;;;;;;9.72;nan;101671.09;4955322;28;20418;-78
2022/05/08 03:05:41;;;;;;;6.70;4.65;;;;;;;9.75;nan;101673.72;4953295;28;20034;-78
2022/05/08 03:08:07;;;;;;;12.13;5.22;;;;;;;9.67;nan;101672.84;4970462;28;20042;-78
2022/05/08 03:13:22;;;;;;;7.68;4.38;;;;;;;9.60;nan;101674.63;4970643;28;20042;-77
2022/05/08 03:15:49;;;;;;;6.72;4.63;;;;;;;9.58;nan;101682.53;4967666;28;20035;-78
2022/05/08 03:18:17;;;;;;;7.20;4.20;;;;;;;9.54;nan;101680.75;4970260;28;20034;-78
2022/05/08 03:20:44;;;;;;;8.43;4.50;;;;;;;9.44;nan;101681.66;4961578;28;20504;-78
2022/05/08 03:23:10;;;;;;;6.55;3.67;;;;;;;9.43;nan;101671.97;4961644;28;20038;-77
2022/05/08 03:25:37;;;;;;;9.57;3.90;;;;;;;9.38;nan;101678.13;4969075;28;20037;-78
2022/05/08 03:28:04;;;;;;;8.48;3.85;;;;;;;9.35;nan;101675.50;4973325;28;20034;-77
2022/05/08 03:30:31;;;;;;;6.57;3.83;;;;;;;9.29;nan;101689.53;4971923;28;20034;-80
2022/05/08 03:32:58;;;;;;;6.95;5.13;;;;;;;9.17;nan;101686.91;4965242;28;20047;-77
2022/05/08 03:35:25;;;;;;;7.95;4.18;;;;;;;9.04;nan;101680.72;4962777;28;20151;-81
2022/05/08 03:37:52;;;;;;;7.70;3.57;;;;;;;8.99;nan;101685.09;4985267;28;20034;-78
2022/05/08 03:40:19;;;;;;;6.20;3.78;;;;;;;8.90;nan;101690.31;4969439;28;20049;-79
2022/05/08 03:42:46;;;;;;;9.85;3.85;;;;;;;8.86;nan;101693.84;4980760;28;20072;-80
2022/05/08 03:45:13;;;;;;;6.93;4.00;;;;;;;8.83;nan;101691.19;4967904;28;20037;-77
2022/05/08 03:47:40;;;;;;;8.13;4.27;;;;;;;8.88;nan;101690.34;4954969;28;20418;-78
2022/05/08 03:50:08;;;;;;;8.25;3.85;;;;;;;8.88;nan;101700.88;4976591;28;20395;-77
2022/05/08 03:52:35;;;;;;;5.90;3.50;;;;;;;8.93;nan;101695.63;4970191;28;20042;-77
2022/05/08 03:55:02;;;;;;;8.27;4.20;;;;;;;8.91;nan;101698.28;4984962;28;20593;-77
2022/05/08 03:57:29;;;;;;;9.50;4.47;;;;;;;8.88;nan;101700.88;4982729;28;20045;-77
2022/05/08 03:59:56;;;;;;;8.52;4.22;;;;;;;8.91;nan;101698.28;4977062;28;20044;-77
2022/05/08 04:02:23;;;;;;;6.47;4.15;;;;;;;8.96;nan;101693.00;4986994;28;20499;-77
2022/05/08 04:04:50;;;;;;;5.93;4.28;;;;;;;8.90;nan;101695.59;4987646;28;20046;-77
2022/05/08 04:07:17;;;;;;;7.13;4.03;;;;;;;8.86;nan;101700.00;4972248;28;20394;-77
2022/05/08 04:09:44;;;;;;;6.45;3.97;;;;;;;8.86;nan;101696.47;4985940;28;20045;-77
2022/05/08 04:12:11;;;;;;;8.25;3.60;;;;;;;8.84;nan;101698.25;4972184;28;20060;-77
2022/05/08 04:14:38;;;;;;;11.03;4.73;;;;;;;8.91;nan;101698.28;4992008;28;20034;-76
2022/05/08 04:17:05;;;;;;;7.37;3.40;;;;;;;8.96;nan;101699.13;4975019;28;20047;-76
2022/05/08 04:19:32;;;;;;;8.10;5.20;;;;;;;8.99;nan;101712.31;4983160;28;20034;-77
2022/05/08 04:24:44;;;;;;;6.97;3.83;;;;;;;9.29;nan;101710.63;4987513;28;20064;-77
2022/05/08 04:27:11;;;;;;;8.83;4.23;;;;;;;9.36;nan;101707.13;4984021;28;20061;-78
2022/05/08 04:29:38;;;;;;;9.00;4.20;;;;;;;9.40;nan;101703.59;4983693;28;20056;-77
2022/05/08 04:32:05;;;;;;;5.80;3.75;;;;;;;9.50;nan;101704.50;4987043;28;20048;-77
2022/05/08 04:34:32;;;;;;;5.45;3.83;;;;;;;9.53;nan;101700.13;4981669;28;20034;-77
2022/05/08 04:36:59;;;;;;;6.05;3.55;;;;;;;9.54;nan;101698.34;4974059;28;20069;-77
2022/05/08 04:39:26;;;;;;;8.02;3.47;;;;;;;9.55;nan;101706.25;4961854;28;20420;-77
2022/05/08 04:41:53;;;;;;;6.20;3.63;;;;;;;9.59;nan;101708.03;4996844;28;20034;-77
2022/05/08 04:44:20;;;;;;;8.32;4.75;;;;;;;9.55;nan;101706.25;4985277;28;20508;-77
2022/05/08 04:46:47;;;;;;;7.97;3.40;;;;;;;9.58;nan;101713.28;4986993;28;20068;-78
2022/05/08 04:49:14;;;;;;;7.47;4.30;;;;;;;9.70;nan;101715.94;4984502;28;20035;-78
2022/05/08 04:51:41;;;;;;;7.55;3.72;;;;;;;9.61;nan;101712.44;4970924;28;20060;-78
2022/05/08 04:54:08;;;;;;;10.77;3.63;;;;;;;9.64;nan;101717.69;4981083;28;20037;-78
2022/05/08 04:56:35;;;;;;;8.32;3.75;;;;;;;9.70;nan;101717.72;4992154;28;20040;-77
2022/05/08 04:59:02;;;;;;;6.95;3.28;;;;;;;9.71;nan;101709.78;4969525;28;20046;-77
2022/05/08 05:01:29;;;;;;;7.55;4.30;;;;;;;9.85;nan;101717.72;4982440;28;20041;-77
2022/05/08 05:03:56;;;;;;;7.75;3.70;;;;;;;9.96;nan;101713.28;5002673;28;20060;-77
2022/05/08 05:06:24;;;;;;;9.30;3.60;;;;;;;9.92;nan;101708.91;4958567;28;20406;-76
2022/05/08 05:08:51;;;;;;;9.38;4.10;;;;;;;9.79;nan;101721.22;4987412;28;20038;-77
2022/05/08 05:11:19;;;;;;;8.32;3.58;;;;;;;9.72;nan;101719.47;4993155;28;20510;-77
2022/05/08 05:13:46;;;;;;;12.43;3.75;;;;;;;9.79;nan;101720.34;4978947;28;20048;-77
2022/05/08 05:16:13;;;;;;;8.20;3.70;;;;;;;9.76;nan;101723.00;4973255;28;20512;-76
2022/05/08 05:18:40;;;;;;;7.53;3.58;;;;;;;9.80;nan;101727.38;5009187;28;20249;-76
2022/05/08 05:21:06;;;;;;;14.70;4.10;;;;;;;9.72;nan;101719.47;5027790;28;20039;-77
2022/05/08 05:23:36;;;;;;;6.40;3.88;;;;;;;9.76;nan;101726.50;4968250;28;20493;-76
2022/05/08 05:26:03;;;;;;;9.02;4.47;;;;;;;9.82;nan;101728.25;4982708;28;20034;-78
2022/05/08 05:28:31;;;;;;;5.97;3.33;;;;;;;9.86;nan;101735.31;4994167;28;20038;-78
2022/05/08 05:30:59;;;;;;;7.80;3.67;;;;;;;9.94;nan;101743.22;4992215;28;20439;-77
2022/05/08 05:33:26;;;;;;;8.43;4.03;;;;;;;10.03;nan;101744.09;4978549;28;20441;-77
2022/05/08 05:35:54;;;;;;;12.50;5.60;;;;;;;9.98;nan;101750.25;4995105;28;20404;-76
2022/05/08 05:38:21;;;;;;;8.90;3.92;;;;;;;9.98;nan;101752.88;4992299;28;20034;-76
2022/05/08 05:40:48;;;;;;;6.75;3.13;;;;;;;10.17;nan;101751.97;4980678;28;20057;-76
2022/05/08 05:43:14;;;;;;;10.75;4.72;;;;;;;10.20;nan;101756.41;4979045;28;20048;-76
2022/05/08 05:45:41;;;;;;;9.45;3.75;;;;;;;10.25;nan;101754.66;4986885;28;20030;-77
2022/05/08 05:48:09;;;;;;;8.05;4.00;;;;;;;10.30;nan;101744.97;4962528;28;20038;-76
2022/05/08 05:50:37;;;;;;;7.97;3.35;;;;;;;10.50;nan;101751.06;5005128;28;20044;-76
2022/05/08 05:53:04;;;;;;;10.05;3.70;;;;;;;10.82;nan;101760.66;5006871;28;20038;-76
2022/05/08 05:55:31;;;;;;;10.75;4.50;;;;;;;10.96;nan;101751.78;5007505;28;20050;-76
2022/05/08 05:57:58;;;;;;;10.90;3.53;;;;;;;11.04;nan;101756.16;4997655;28;20034;-76
2022/05/08 06:00:25;;;;;;;9.85;3.88;;;;;;;11.79;nan;101765.38;4975862;28;20050;-76
2022/05/08 06:02:52;;;;;;;12.38;3.58;;;;;;;12.04;nan;101765.22;4994792;28;20037;-76
2022/05/08 06:05:19;;;;;;;10.30;4.32;;;;;;;11.93;nan;101764.41;4987932;28;20048;-77
2022/05/08 06:07:46;;;;;;;7.57;3.30;;;;;;;12.02;nan;101761.69;4989525;28;20071;-76
2022/05/08 06:10:14;;;;;;;7.22;3.30;;;;;;;11.98;nan;101762.63;4973318;28;20064;-77
2022/05/08 06:12:41;;;;;;;7.10;3.00;;;;;;;12.24;nan;101771.19;4983426;28;20049;-76
2022/05/08 06:15:08;;;;;;;11.05;4.28;;;;;;;12.69;nan;101763.63;4970869;28;20044;-76
2022/05/08 06:17:36;;;;;;;7.25;3.10;;;;;;;13.19;nan;101767.44;4990235;28;20040;-76
2022/05/08 06:20:03;;;;;;;11.57;4.32;;;;;;;13.62;nan;101761.53;4989955;28;20494;-76
2022/05/08 06:22:32;;;;;;;8.43;3.45;;;;;;;14.02;nan;101760.00;4993797;28;20064;-76
2022/05/08 06:25:00;;;;;;;10.20;3.03;;;;;;;14.34;nan;101761.19;4993686;28;20050;-76
2022/05/08 06:27:27;;;;;;;5.97;2.88;;;;;;;14.77;nan;101765.72;4965502;28;20045;-76
2022/05/08 06:29:54;;;;;;;11.00;3.47;;;;;;;14.93;nan;101757.41;4997085;28;20098;-76
2022/05/08 06:32:21;;;;;;;7.70;3.00;;;;;;;15.39;nan;101763.53;4978655;28;20060;-77
2022/05/08 06:34:48;;;;;;;9.40;3.60;;;;;;;15.89;nan;101757.03;4990721;28;20064;-77
2022/05/08 06:37:15;;;;;;;12.68;3.38;;;;;;;16.08;nan;101756.53;4983216;28;20041;-77
2022/05/08 06:39:42;;;;;;;11.27;3.45;;;;;;;15.95;nan;101762.16;4998066;28;20040;-78
2022/05/08 06:42:09;;;;;;;6.45;2.88;;;;;;;15.90;nan;101760.56;4972589;28;20533;-78
2022/05/08 06:44:36;;;;;;;8.20;3.42;;;;;;;15.96;nan;101758.59;4973537;28;20034;-77
2022/05/08 06:47:04;;;;;;;7.90;3.08;;;;;;;16.19;nan;101762.47;4986836;28;20026;-77
2022/05/08 06:49:31;;;;;;;8.90;3.25;;;;;;;16.24;nan;101761.44;4980431;28;20099;-77
2022/05/08 06:51:58;;;;;;;10.23;3.47;;;;;;;16.37;nan;101761.97;4995193;28;20033;-77
2022/05/08 06:54:26;;;;;;;8.68;2.95;;;;;;;16.66;nan;101765.66;5001580;28;20042;-77
2022/05/08 06:56:55;;;;;;;9.77;3.67;;;;;;;16.96;nan;101764.78;5006067;28;20034;-77
2022/05/08 07:02:09;;;;;;;11.90;3.15;;;;;;;16.96;nan;101763.91;4963309;28;20038;-77
2022/05/08 07:04:36;;;;;;;9.10;3.75;;;;;;;17.02;nan;101763.72;5000318;28;20038;-77
2022/05/08 07:07:03;;;;;;;7.93;3.88;;;;;;;17.20;nan;101768.53;4986155;28;20037;-77
2022/05/08 07:09:30;;;;;;;9.75;3.60;;;;;;;17.36;nan;101774.28;4985085;28;20042;-76
2022/05/08 07:11:57;;;;;;;10.07;3.45;;;;;;;17.67;nan;101768.84;4989888;28;20513;-77
2022/05/08 07:14:27;;;;;;;7.65;2.90;;;;;;;17.88;nan;101773.50;4992958;28;20072;-77
2022/05/08 07:16:54;;;;;;;10.07;3.00;;;;;;;17.82;nan;101768.34;4992560;28;20034;-77
2022/05/08 07:19:22;;;;;;;9.73;3.60;;;;;;;17.73;nan;101768.66;4991721;28;20528;-77
2022/05/08 07:21:49;;;;;;;6.65;3.25;;;;;;;17.70;nan;101776.78;5007112;28;20067;-77
2022/05/08 07:24:20;;;;;;;8.65;3.05;;;;;;;17.76;nan;101771.25;4993506;28;20042;-77
2022/05/08 07:26:47;;;;;;;7.32;3.28;;;;;;;17.58;nan;101786.06;4987268;28;20056;-76
2022/05/08 07:29:15;;;;;;;6.35;2.60;;;;;;;17.67;nan;101780.41;4984686;28;20038;-76
2022/05/08 07:31:43;;;;;;;6.95;3.30;;;;;;;17.64;nan;101775.13;4974431;28;20038;-77
2022/05/08 07:36:56;;;;;;;7.07;3.38;;;;;;;18.11;nan;101775.41;5002315;28;20060;-75
2022/05/08 07:39:23;;;;;;;5.72;2.67;;;;;;;18.24;nan;101779.44;5000511;28;20034;-76
2022/05/08 07:41:51;;;;;;;5.57;2.83;;;;;;;18.19;nan;101776.03;4996638;28;20041;-76
2022/05/08 07:44:18;;;;;;;5.82;2.92;;;;;;;18.22;nan;101777.72;4999821;28;20038;-76
2022/05/08 07:46:45;;;;;;;8.55;2.95;;;;;;;18.07;nan;101778.22;4996000;28;20036;-77
2022/05/08 07:49:12;;;;;;;5.32;2.78;;;;;;;18.02;nan;101781.06;4982628;28;20505;-77
2022/05/08 07:51:38;;;;;;;9.77;3.10;;;;;;;17.97;nan;101778.53;5001239;28;20069;-77
2022/05/08 07:54:05;;;;;;;9.88;3.45;;;;;;;18.22;nan;101783.94;4984660;28;20044;-77
2022/05/08 07:56:34;;;;;;;6.60;2.60;;;;;;;18.44;nan;101783.19;4968725;28;20167;-77
2022/05/08 07:59:00;;;;;;;8.02;2.78;;;;;;;18.02;nan;101780.22;5002104;28;20050;-76
2022/05/08 08:01:27;;;;;;;7.63;2.60;;;;;;;18.13;nan;101789.59;5001853;28;20052;-77
2022/05/08 08:04:17;;;;;;;4.00;2.50;;;;;;;17.83;nan;101790.66;4990214;28;20040;-77
2022/05/08 08:06:44;;;;;;;7.93;2.85;;;;;;;18.21;nan;101792.88;4980952;28;20040;-76
2022/05/08 08:09:11;;;;;;;5.43;2.55;;;;;;;18.43;nan;101792.16;4998006;28;20044;-76
2022/05/08 08:11:39;;;;;;;8.10;2.83;;;;;;;17.92;nan;101791.22;4999084;28;20052;-76
2022/05/08 08:14:06;;;;;;;5.90;2.67;;;;;;;17.66;nan;101796.50;4978829;28;20049;-78
2022/05/08 08:16:33;;;;;;;6.75;2.67;;;;;;;17.79;nan;101791.66;4975746;28;20034;-77
2022/05/08 08:19:00;;;;;;;7.90;3.03;;;;;;;17.92;nan;101793.88;4990869;28;20034;-77
2022/05/08 08:21:27;;;;;;;12.98;3.42;;;;;;;17.98;nan;101798.13;4984522;28;20048;-76
2022/05/08 08:23:54;;;;;;;5.57;2.40;;;;;;;18.31;nan;101800.59;4987340;28;20048;-75
2022/05/08 08:26:21;;;;;;;8.60;2.92;;;;;;;18.66;nan;101794.91;5011091;28;20037;-76
2022/05/08 08:28:47;;;;;;;10.23;4.03;;;;;;;18.94;nan;101800.16;4996752;28;20048;-77
2022/05/08 08:31:14;;;;;;;32.72;6.05;;;;;;;19.17;nan;101801.06;4993745;28;20042;-77
2022/05/08 08:33:45;;;;;;;5.18;2.53;;;;;;;19.21;nan;101808.06;4986285;28;20033;-77
2022/05/08 08:36:12;;;;;;;9.18;2.65;;;;;;;18.69;nan;101810.00;5000583;28;20034;-78
2022/05/08 08:38:40;;;;;;;7.93;2.75;;;;;;;18.84;nan;101810.31;4983966;28;20116;-78
2022/05/08 08:41:07;;;;;;;7.97;2.78;;;;;;;19.05;nan;101822.03;4982122;28;20046;-77
2022/05/08 08:49:25;;;;;;;7.07;2.70;;;;;;;19.28;nan;101821.19;4928784;29;20042;-77
2022/05/08 08:51:52;;;;;;;5.82;2.60;;;;;;;19.50;nan;101825.69;4977260;28;20117;-78
2022/05/08 08:54:20;;;;;;;6.65;2.70;;;;;;;19.56;nan;101822.78;4989127;28;20044;-77
2022/05/08 08:56:50;;;;;;;7.35;3.20;;;;;;;19.13;nan;101822.63;4987216;28;20038;-78
2022/05/08 08:59:21;;;;;;;7.65;2.67;;;;;;;19.52;nan;101815.81;4973919;28;20053;-78
2022/05/08 09:01:48;;;;;;;5.28;2.40;;;;;;;19.95;nan;101823.91;4979207;28;20034;-78
2022/05/08 09:04:18;;;;;;;7.95;2.88;;;;;;;20.11;nan;101816.09;4992635;28;20044;-78
2022/05/08 09:06:46;;;;;;;8.82;2.97;;;;;;;20.30;nan;101821.53;4996332;28;20034;-77
2022/05/08 09:09:31;;;;;;;5.72;2.70;;;;;;;20.03;nan;101826.28;4980097;28;20380;-77
2022/05/08 09:11:58;;;;;;;7.03;2.78;;;;;;;19.76;nan;101814.88;5001010;28;20141;-78
2022/05/08 09:14:29;;;;;;;7.05;2.47;;;;;;;19.80;nan;101826.31;5005724;28;20038;-78
2022/05/08 09:16:57;;;;;;;4.97;2.67;;;;;;;19.22;nan;101841.97;4975832;28;20391;-78
2022/05/08 09:19:40;;;;;;;8.20;2.65;;;;;;;18.78;nan;101836.44;4988818;28;20038;-78
2022/05/08 09:22:09;;;;;;;4.93;2.58;;;;;;;19.47;nan;101832.06;5090431;23;20486;-79
2022/05/08 09:24:36;;;;;;;6.50;2.35;;;;;;;19.80;nan;101831.69;4992176;28;20040;-79
2022/05/08 09:27:17;;;;;;;5.07;2.25;;;;;;;19.80;nan;101837.06;5002058;28;20041;-81
2022/05/08 09:29:45;;;;;;;8.35;2.53;;;;;;;20.03;nan;101830.75;4981923;28;20035;-81
2022/05/08 09:32:39;;;;;;;8.57;2.83;;;;;;;19.88;nan;101835.81;4974421;28;21045;-83
2022/05/08 09:35:07;;;;;;;7.00;2.47;;;;;;;19.26;nan;101832.91;4977485;28;20122;-80
2022/05/08 09:37:50;;;;;;;3.10;1.95;;;;;;;19.62;nan;101836.84;4969590;28;20046;-80
2022/05/08 09:40:19;;;;;;;6.30;2.28;;;;;;;20.16;nan;101830.16;4975552;28;20098;-80
2022/05/08 09:42:47;;;;;;;5.43;2.15;;;;;;;20.64;nan;101838.91;4977648;28;20121;-82
2022/05/08 09:45:14;;;;;;;5.30;2.65;;;;;;;21.06;nan;101838.81;4980224;28;20205;-80
2022/05/08 09:47:49;;;;;;;5.80;2.35;;;;;;;20.72;nan;101834.97;4959568;28;20050;-82
2022/05/08 09:50:17;;;;;;;6.85;2.75;;;;;;;20.14;nan;101832.06;4996176;28;20039;-79
2022/05/08 09:52:45;;;;;;;7.88;2.63;;;;;;;20.19;nan;101846.16;4959958;28;20050;-80
2022/05/08 09:55:13;;;;;;;6.45;2.20;;;;;;;20.55;nan;101829.44;4977322;28;20042;-80
2022/05/08 09:57:40;;;;;;;6.95;2.35;;;;;;;21.06;nan;101831.63;4976241;28;20521;-80
2022/05/08 10:00:12;;;;;;;7.65;2.28;;;;;;;21.27;nan;101827.13;4977617;28;20049;-79
2022/05/08 10:02:43;;;;;;;2.83;1.70;;;;;;;21.40;nan;101834.59;4989545;28;20034;-79
2022/05/08 10:05:10;;;;;;;3.47;1.75;;;;;;;20.84;nan;101829.97;4979716;28;20043;-79
2022/05/08 10:07:39;;;;;;;4.28;1.90;;;;;;;19.86;nan;101839.50;4978409;28;20507;-79
2022/05/08 10:15:45;;;;;;;5.78;2.03;;;;;;;20.38;nan;101834.66;4982220;28;20049;-80
2022/05/08 10:18:28;;;;;;;3.13;1.50;;;;;;;20.41;nan;101826.44;4987422;28;20037;-78
2022/05/08 10:21:04;;;;;;;5.35;1.88;;;;;;;20.26;nan;101822.59;4978337;28;20052;-80
2022/05/08 10:23:35;;;;;;;5.32;2.20;;;;;;;20.50;nan;101820.72;4990542;28;20057;-78
2022/05/08 10:26:12;;;;;;;4.38;1.92;;;;;;;21.05;nan;101823.66;4998852;28;20121;-79
2022/05/08 10:29:04;;;;;;;25.35;4.68;;;;;;;21.56;nan;101830.25;4996365;28;20106;-78
2022/05/08 10:31:46;;;;;;;5.22;2.45;;;;;;;21.55;nan;101821.31;5026397;23;20125;-80
2022/05/08 10:34:14;;;;;;;5.68;1.95;;;;;;;20.95;nan;101825.88;5019644;23;20061;-80
2022/05/08 10:37:11;;;;;;;5.18;2.05;;;;;;;21.29;nan;101829.75;4991361;28;20034;-79
2022/05/08 10:39:46;;;;;;;8.63;2.53;;;;;;;20.98;nan;101827.53;5006231;28;20042;-80
2022/05/08 10:42:29;;;;;;;2.53;1.85;;;;;;;20.82;nan;101826.50;4983394;28;20061;-79
2022/05/08 10:44:57;;;;;;;4.15;1.88;;;;;;;20.65;nan;101824.56;5010361;28;20030;-79
2022/05/08 10:47:43;;;;;;;2.95;1.98;;;;;;;21.16;nan;101821.31;5000635;28;20364;-80
2022/05/08 10:50:11;;;;;;;5.65;2.00;;;;;;;21.46;nan;101827.13;5014796;28;20495;-80
2022/05/08 10:52:40;;;;;;;3.92;1.85;;;;;;;21.72;nan;101808.88;4981938;28;20046;-79
2022/05/08 10:55:09;;;;;;;5.80;2.10;;;;;;;21.22;nan;101821.03;4998763;28;20038;-79
2022/05/08 10:57:37;;;;;;;8.20;2.33;;;;;;;21.60;nan;101831.81;4978517;28;20540;-80
2022/05/08 11:00:06;;;;;;;4.00;1.88;;;;;;;21.47;nan;101822.63;4975775;28;20044;-79
2022/05/08 11:02:52;;;;;;;3.83;1.95;;;;;;;22.02;nan;101815.41;4979429;28;20056;-79
2022/05/08 11:05:21;;;;;;;3.65;1.90;;;;;;;22.00;nan;101813.75;4992807;28;20034;-80
2022/05/08 11:07:54;;;;;;;4.35;2.20;;;;;;;22.30;nan;101812.25;5000953;28;20042;-79
2022/05/08 11:10:32;;;;;;;3.78;1.63;;;;;;;22.67;nan;101816.56;4983060;28;20042;-79
2022/05/08 11:13:01;;;;;;;3.03;1.50;;;;;;;22.74;nan;101809.91;4984975;28;20041;-80
2022/05/08 11:15:48;;;;;;;5.35;1.88;;;;;;;22.86;nan;101811.09;4976958;28;20553;-80
2022/05/08 11:18:20;;;;;;;4.13;1.50;;;;;;;22.17;nan;101813.81;4979200;28;20525;-79
2022/05/08 11:21:01;;;;;;;3.60;1.88;;;;;;;22.48;nan;101808.59;4978744;28;20048;-80
2022/05/08 11:23:46;;;;;;;6.95;2.33;;;;;;;22.60;nan;101809.75;4973508;28;20718;-79
2022/05/08 11:26:14;;;;;;;1.90;1.40;;;;;;;22.83;nan;101811.25;4969533;28;20043;-79
2022/05/08 11:28:53;;;;;;;3.33;1.80;;;;;;;22.38;nan;101809.16;4993081;28;20492;-80
2022/05/08 11:31:20;;;;;;;2.65;1.58;;;;;;;22.48;nan;101810.41;4975002;28;20038;-79
2022/05/08 11:36:35;;;;;;;3.83;1.60;;;;;;;22.47;nan;101806.00;4975846;28;20135;-79
2022/05/08 11:39:09;;;;;;;3.85;2.10;;;;;;;22.59;nan;101801.78;4978112;28;20035;-79
2022/05/08 11:41:44;;;;;;;6.03;1.90;;;;;;;22.09;nan;101806.13;4975376;28;20034;-80
2022/05/08 11:44:14;;;;;;;2.95;1.60;;;;;;;21.80;nan;101806.69;4974942;28;20042;-79
2022/05/08 11:46:50;;;;;;;4.88;1.83;;;;;;;22.10;nan;101797.09;4976747;28;20050;-79
2022/05/08 11:49:29;;;;;;;2.95;1.67;;;;;;;22.35;nan;101802.09;4971861;28;20422;-80
2022/05/08 11:52:04;;;;;;;2.17;1.60;;;;;;;22.04;nan;101800.06;4966572;28;20034;-79
2022/05/08 11:54:35;;;;;;;2.75;1.95;;;;;;;22.24;nan;101804.47;4980714;28;20042;-79
2022/05/08 11:57:23;;;;;;;3.47;1.70;;;;;;;22.29;nan;101798.88;4992268;28;20052;-79
2022/05/08 12:00:05;;;;;;;2.92;1.52;;;;;;;22.69;nan;101806.59;4960116;28;20037;-79
2022/05/08 12:02:39;;;;;;;3.80;1.70;;;;;;;22.69;nan;101800.31;4974987;28;20049;-79
2022/05/08 12:05:11;;;;;;;3.15;1.70;;;;;;;22.55;nan;101801.06;4979866;28;20414;-79
2022/05/08 12:07:39;;;;;;;3.30;1.60;;;;;;;22.66;nan;101800.50;4959725;28;20046;-79
2022/05/08 12:10:07;;;;;;;3.10;1.77;;;;;;;22.49;nan;101796.00;4989177;28;20042;-78
2022/05/08 12:12:36;;;;;;;2.72;1.80;;;;;;;22.53;nan;101797.56;4975044;28;20042;-79
2022/05/08 12:15:10;;;;;;;2.97;1.70;;;;;;;22.02;nan;101785.81;4965357;28;20109;-78
2022/05/08 12:17:40;;;;;;;4.28;1.98;;;;;;;21.52;nan;101793.69;4989106;28;20045;-79
2022/05/08 12:20:08;;;;;;;4.82;2.08;;;;;;;21.29;nan;101795.66;4994729;28;20046;-78
2022/05/08 12:22:36;;;;;;;2.63;1.60;;;;;;;21.42;nan;101792.38;4985579;28;20042;-78
2022/05/08 12:25:03;;;;;;;7.32;2.45;;;;;;;21.57;nan;101799.72;4975981;28;20566;-79